sensor_id;sensor_type;location;lat;lon;timestamp;P1;durP1;ratioP1;P2;durP2;ratioP2
71566;SDS011;59403;47.456;19.120;2023-04-29T00:01:20;13.80;;;7.82;;
71566;SDS011;59403;47.456;19.120;2023-04-29T00:03:46;8.75;;;6.53;;
71566;SDS011;59403;47.456;19.120;2023-04-29T00:06:14;9.88;;;6.22;;
71566;SDS011;59403;47.456;19.120;2023-04-29T00:08:42;9.45;;;5.53;;
71566;SDS011;59403;47.456;19.120;2023-04-29T00:11:09;7.30;;;5.72;;
71566;SDS011;59403;47.456;19.120;2023-04-29T00:13:36;8.18;;;5.80;;
71566;SDS011;59403;47.456;19.120;2023-04-29T00:16:05;8.98;;;5.70;;
71566;SDS011;59403;47.456;19.120;2023-04-29T00:18:33;9.20;;;5.75;;
71566;SDS011;59403;47.456;19.120;2023-04-29T00:21:00;7.15;;;5.20;;
71566;SDS011;59403;47.456;19.120;2023-04-29T00:23:30;9.38;;;5.12;;
71566;SDS011;59403;47.456;19.120;2023-04-29T00:25:58;9.00;;;5.32;;
71566;SDS011;59403;47.456;19.120;2023-04-29T00:28:25;7.70;;;5.18;;
71566;SDS011;59403;47.456;19.120;2023-04-29T00:30:52;8.20;;;5.05;;
71566;SDS011;59403;47.456;19.120;2023-04-29T00:33:20;8.23;;;4.97;;
71566;SDS011;59403;47.456;19.120;2023-04-29T00:35:46;10.95;;;5.55;;
71566;SDS011;59403;47.456;19.120;2023-04-29T00:38:13;9.77;;;5.72;;
71566;SDS011;59403;47.456;19.120;2023-04-29T00:40:41;9.25;;;5.43;;
71566;SDS011;59403;47.456;19.120;2023-04-29T00:43:10;6.45;;;5.10;;
71566;SDS011;59403;47.456;19.120;2023-04-29T00:45:37;8.90;;;5.25;;
71566;SDS011;59403;47.456;19.120;2023-04-29T00:48:04;9.18;;;5.07;;
71566;SDS011;59403;47.456;19.120;2023-04-29T00:50:31;8.93;;;5.47;;
71566;SDS011;59403;47.456;19.120;2023-04-29T00:52:58;7.32;;;5.22;;
71566;SDS011;59403;47.456;19.120;2023-04-29T00:55:26;9.65;;;5.87;;
71566;SDS011;59403;47.456;19.120;2023-04-29T00:57:54;7.12;;;4.45;;
71566;SDS011;59403;47.456;19.120;2023-04-29T01:00:23;8.07;;;5.32;;
71566;SDS011;59403;47.456;19.120;2023-04-29T01:02:51;9.05;;;5.20;;
71566;SDS011;59403;47.456;19.120;2023-04-29T01:05:21;8.20;;;5.45;;
71566;SDS011;59403;47.456;19.120;2023-04-29T01:07:51;8.23;;;4.90;;
71566;SDS011;59403;47.456;19.120;2023-04-29T01:10:34;7.43;;;5.28;;
71566;SDS011;59403;47.456;19.120;2023-04-29T01:13:08;9.40;;;5.47;;
71566;SDS011;59403;47.456;19.120;2023-04-29T01:15:43;8.90;;;5.12;;
71566;SDS011;59403;47.456;19.120;2023-04-29T01:18:17;8.50;;;4.47;;
71566;SDS011;59403;47.456;19.120;2023-04-29T01:20:49;6.90;;;4.95;;
71566;SDS011;59403;47.456;19.120;2023-04-29T01:23:17;7.62;;;5.37;;
71566;SDS011;59403;47.456;19.120;2023-04-29T01:25:45;8.60;;;5.00;;
71566;SDS011;59403;47.456;19.120;2023-04-29T01:28:26;6.65;;;4.68;;
71566;SDS011;59403;47.456;19.120;2023-04-29T01:31:06;8.18;;;5.10;;
71566;SDS011;59403;47.456;19.120;2023-04-29T01:33:39;7.93;;;4.70;;
71566;SDS011;59403;47.456;19.120;2023-04-29T01:36:15;7.43;;;5.28;;
71566;SDS011;59403;47.456;19.120;2023-04-29T01:38:52;8.85;;;4.97;;
71566;SDS011;59403;47.456;19.120;2023-04-29T01:41:26;7.60;;;4.70;;
71566;SDS011;59403;47.456;19.120;2023-04-29T01:44:00;7.80;;;4.60;;
71566;SDS011;59403;47.456;19.120;2023-04-29T01:46:29;9.00;;;4.78;;
71566;SDS011;59403;47.456;19.120;2023-04-29T01:48:56;8.52;;;5.10;;
71566;SDS011;59403;47.456;19.120;2023-04-29T01:51:23;7.68;;;4.82;;
71566;SDS011;59403;47.456;19.120;2023-04-29T01:53:52;7.75;;;5.00;;
71566;SDS011;59403;47.456;19.120;2023-04-29T01:56:19;7.85;;;4.72;;
71566;SDS011;59403;47.456;19.120;2023-04-29T01:58:47;6.82;;;5.18;;
71566;SDS011;59403;47.456;19.120;2023-04-29T02:01:15;7.62;;;5.00;;
71566;SDS011;59403;47.456;19.120;2023-04-29T02:03:41;8.88;;;4.93;;
71566;SDS011;59403;47.456;19.120;2023-04-29T02:06:08;6.97;;;5.32;;
71566;SDS011;59403;47.456;19.120;2023-04-29T02:08:35;8.50;;;4.78;;
71566;SDS011;59403;47.456;19.120;2023-04-29T02:11:02;8.40;;;4.90;;
71566;SDS011;59403;47.456;19.120;2023-04-29T02:13:29;10.75;;;5.45;;
71566;SDS011;59403;47.456;19.120;2023-04-29T02:15:57;8.65;;;4.47;;
71566;SDS011;59403;47.456;19.120;2023-04-29T02:18:32;7.87;;;4.15;;
71566;SDS011;59403;47.456;19.120;2023-04-29T02:20:59;8.25;;;5.03;;
71566;SDS011;59403;47.456;19.120;2023-04-29T02:23:26;7.32;;;4.75;;
71566;SDS011;59403;47.456;19.120;2023-04-29T02:25:53;8.73;;;5.47;;
71566;SDS011;59403;47.456;19.120;2023-04-29T02:28:20;6.65;;;4.82;;
71566;SDS011;59403;47.456;19.120;2023-04-29T02:30:47;7.55;;;4.45;;
71566;SDS011;59403;47.456;19.120;2023-04-29T02:33:16;10.32;;;5.03;;
71566;SDS011;59403;47.456;19.120;2023-04-29T02:35:43;7.57;;;5.03;;
71566;SDS011;59403;47.456;19.120;2023-04-29T02:38:10;7.75;;;5.05;;
71566;SDS011;59403;47.456;19.120;2023-04-29T02:40:39;9.05;;;5.50;;
71566;SDS011;59403;47.456;19.120;2023-04-29T02:43:07;8.32;;;4.75;;
71566;SDS011;59403;47.456;19.120;2023-04-29T02:45:34;7.70;;;5.40;;
71566;SDS011;59403;47.456;19.120;2023-04-29T02:48:01;7.53;;;4.97;;
71566;SDS011;59403;47.456;19.120;2023-04-29T02:50:29;6.05;;;4.43;;
71566;SDS011;59403;47.456;19.120;2023-04-29T02:52:56;7.85;;;5.43;;
71566;SDS011;59403;47.456;19.120;2023-04-29T02:55:23;8.38;;;4.90;;
71566;SDS011;59403;47.456;19.120;2023-04-29T02:57:51;8.35;;;4.70;;
71566;SDS011;59403;47.456;19.120;2023-04-29T03:00:18;7.93;;;4.75;;
71566;SDS011;59403;47.456;19.120;2023-04-29T03:02:45;8.18;;;4.97;;
71566;SDS011;59403;47.456;19.120;2023-04-29T03:05:12;9.43;;;5.22;;
71566;SDS011;59403;47.456;19.120;2023-04-29T03:07:41;8.55;;;5.18;;
71566;SDS011;59403;47.456;19.120;2023-04-29T03:10:08;6.12;;;4.45;;
71566;SDS011;59403;47.456;19.120;2023-04-29T03:12:35;6.90;;;4.47;;
71566;SDS011;59403;47.456;19.120;2023-04-29T03:15:03;7.50;;;4.68;;
71566;SDS011;59403;47.456;19.120;2023-04-29T03:17:31;8.60;;;4.53;;
71566;SDS011;59403;47.456;19.120;2023-04-29T03:19:59;9.57;;;4.97;;
71566;SDS011;59403;47.456;19.120;2023-04-29T03:22:26;7.05;;;4.43;;
71566;SDS011;59403;47.456;19.120;2023-04-29T03:24:54;9.23;;;4.97;;
71566;SDS011;59403;47.456;19.120;2023-04-29T03:27:21;8.18;;;4.68;;
71566;SDS011;59403;47.456;19.120;2023-04-29T03:29:48;7.47;;;4.85;;
71566;SDS011;59403;47.456;19.120;2023-04-29T03:32:15;7.15;;;4.60;;
71566;SDS011;59403;47.456;19.120;2023-04-29T03:34:41;6.57;;;4.72;;
71566;SDS011;59403;47.456;19.120;2023-04-29T03:37:08;7.12;;;5.22;;
71566;SDS011;59403;47.456;19.120;2023-04-29T03:39:35;8.88;;;5.70;;
71566;SDS011;59403;47.456;19.120;2023-04-29T03:42:03;10.05;;;5.22;;
71566;SDS011;59403;47.456;19.120;2023-04-29T03:44:30;11.07;;;5.65;;
71566;SDS011;59403;47.456;19.120;2023-04-29T03:46:57;8.57;;;4.82;;
71566;SDS011;59403;47.456;19.120;2023-04-29T03:49:24;7.12;;;5.03;;
71566;SDS011;59403;47.456;19.120;2023-04-29T03:51:51;7.82;;;5.18;;
71566;SDS011;59403;47.456;19.120;2023-04-29T03:54:18;8.73;;;5.10;;
71566;SDS011;59403;47.456;19.120;2023-04-29T03:56:45;8.90;;;5.07;;
71566;SDS011;59403;47.456;19.120;2023-04-29T03:59:14;9.05;;;5.40;;
71566;SDS011;59403;47.456;19.120;2023-04-29T04:01:40;9.40;;;5.82;;
71566;SDS011;59403;47.456;19.120;2023-04-29T04:04:07;10.60;;;5.35;;
71566;SDS011;59403;47.456;19.120;2023-04-29T04:06:34;7.68;;;5.60;;
71566;SDS011;59403;47.456;19.120;2023-04-29T04:09:01;9.10;;;5.35;;
71566;SDS011;59403;47.456;19.120;2023-04-29T04:11:28;9.18;;;5.30;;
71566;SDS011;59403;47.456;19.120;2023-04-29T04:13:55;8.55;;;5.72;;
71566;SDS011;59403;47.456;19.120;2023-04-29T04:16:23;8.00;;;5.72;;
71566;SDS011;59403;47.456;19.120;2023-04-29T04:18:50;7.45;;;5.37;;
71566;SDS011;59403;47.456;19.120;2023-04-29T04:21:17;9.15;;;6.53;;
71566;SDS011;59403;47.456;19.120;2023-04-29T04:23:44;9.63;;;5.97;;
71566;SDS011;59403;47.456;19.120;2023-04-29T04:26:11;8.95;;;5.65;;
71566;SDS011;59403;47.456;19.120;2023-04-29T04:28:38;8.38;;;5.90;;
71566;SDS011;59403;47.456;19.120;2023-04-29T04:31:05;11.48;;;6.15;;
71566;SDS011;59403;47.456;19.120;2023-04-29T04:33:33;9.75;;;6.00;;
71566;SDS011;59403;47.456;19.120;2023-04-29T04:36:00;8.23;;;6.47;;
71566;SDS011;59403;47.456;19.120;2023-04-29T04:38:27;8.82;;;6.95;;
71566;SDS011;59403;47.456;19.120;2023-04-29T04:40:54;10.27;;;6.80;;
71566;SDS011;59403;47.456;19.120;2023-04-29T04:43:21;10.15;;;6.22;;
71566;SDS011;59403;47.456;19.120;2023-04-29T04:45:47;10.75;;;6.80;;
71566;SDS011;59403;47.456;19.120;2023-04-29T04:48:14;9.77;;;6.62;;
71566;SDS011;59403;47.456;19.120;2023-04-29T04:50:43;9.50;;;6.65;;
71566;SDS011;59403;47.456;19.120;2023-04-29T04:53:09;13.43;;;6.50;;
71566;SDS011;59403;47.456;19.120;2023-04-29T04:55:36;9.63;;;6.45;;
71566;SDS011;59403;47.456;19.120;2023-04-29T04:58:03;10.40;;;6.60;;
71566;SDS011;59403;47.456;19.120;2023-04-29T05:00:30;12.02;;;6.75;;
71566;SDS011;59403;47.456;19.120;2023-04-29T05:02:57;13.73;;;7.53;;
71566;SDS011;59403;47.456;19.120;2023-04-29T05:05:24;10.13;;;6.20;;
71566;SDS011;59403;47.456;19.120;2023-04-29T05:07:52;10.25;;;6.75;;
71566;SDS011;59403;47.456;19.120;2023-04-29T05:10:19;11.05;;;7.05;;
71566;SDS011;59403;47.456;19.120;2023-04-29T05:12:50;9.70;;;6.50;;
71566;SDS011;59403;47.456;19.120;2023-04-29T05:15:17;8.65;;;6.82;;
71566;SDS011;59403;47.456;19.120;2023-04-29T05:17:44;9.07;;;6.45;;
71566;SDS011;59403;47.456;19.120;2023-04-29T05:20:11;10.32;;;6.70;;
71566;SDS011;59403;47.456;19.120;2023-04-29T05:22:38;10.27;;;6.82;;
71566;SDS011;59403;47.456;19.120;2023-04-29T05:25:06;10.10;;;6.55;;
71566;SDS011;59403;47.456;19.120;2023-04-29T05:27:34;11.00;;;6.00;;
71566;SDS011;59403;47.456;19.120;2023-04-29T05:30:01;8.93;;;5.57;;
71566;SDS011;59403;47.456;19.120;2023-04-29T05:32:28;9.52;;;6.47;;
71566;SDS011;59403;47.456;19.120;2023-04-29T05:34:55;12.07;;;6.20;;
71566;SDS011;59403;47.456;19.120;2023-04-29T05:37:22;8.05;;;6.87;;
71566;SDS011;59403;47.456;19.120;2023-04-29T05:39:51;10.77;;;6.82;;
71566;SDS011;59403;47.456;19.120;2023-04-29T05:42:19;10.48;;;5.53;;
71566;SDS011;59403;47.456;19.120;2023-04-29T05:44:47;9.00;;;5.85;;
71566;SDS011;59403;47.456;19.120;2023-04-29T05:47:14;10.43;;;6.25;;
71566;SDS011;59403;47.456;19.120;2023-04-29T05:49:41;16.10;;;6.05;;
71566;SDS011;59403;47.456;19.120;2023-04-29T05:52:08;11.38;;;6.70;;
71566;SDS011;59403;47.456;19.120;2023-04-29T05:54:36;9.48;;;6.55;;
71566;SDS011;59403;47.456;19.120;2023-04-29T05:57:02;10.45;;;6.12;;
71566;SDS011;59403;47.456;19.120;2023-04-29T05:59:31;10.23;;;6.20;;
71566;SDS011;59403;47.456;19.120;2023-04-29T06:01:58;8.63;;;5.55;;
71566;SDS011;59403;47.456;19.120;2023-04-29T06:04:25;10.63;;;5.72;;
71566;SDS011;59403;47.456;19.120;2023-04-29T06:06:53;9.27;;;5.62;;
71566;SDS011;59403;47.456;19.120;2023-04-29T06:09:22;7.87;;;6.10;;
71566;SDS011;59403;47.456;19.120;2023-04-29T06:11:49;10.65;;;6.40;;
71566;SDS011;59403;47.456;19.120;2023-04-29T06:14:27;7.62;;;5.87;;
71566;SDS011;59403;47.456;19.120;2023-04-29T06:16:55;10.68;;;5.85;;
71566;SDS011;59403;47.456;19.120;2023-04-29T06:19:22;7.87;;;5.90;;
71566;SDS011;59403;47.456;19.120;2023-04-29T06:21:49;7.60;;;6.00;;
71566;SDS011;59403;47.456;19.120;2023-04-29T06:24:16;10.80;;;6.32;;
71566;SDS011;59403;47.456;19.120;2023-04-29T06:26:43;11.00;;;6.65;;
71566;SDS011;59403;47.456;19.120;2023-04-29T06:29:10;11.85;;;6.87;;
71566;SDS011;59403;47.456;19.120;2023-04-29T06:31:37;11.93;;;6.57;;
71566;SDS011;59403;47.456;19.120;2023-04-29T06:34:06;11.75;;;6.70;;
71566;SDS011;59403;47.456;19.120;2023-04-29T06:36:33;25.58;;;7.18;;
71566;SDS011;59403;47.456;19.120;2023-04-29T06:39:00;10.05;;;5.85;;
71566;SDS011;59403;47.456;19.120;2023-04-29T06:41:27;9.27;;;5.82;;
71566;SDS011;59403;47.456;19.120;2023-04-29T06:43:54;14.68;;;6.60;;
71566;SDS011;59403;47.456;19.120;2023-04-29T06:46:20;11.50;;;6.32;;
71566;SDS011;59403;47.456;19.120;2023-04-29T06:48:47;22.35;;;7.12;;
71566;SDS011;59403;47.456;19.120;2023-04-29T06:51:15;12.55;;;6.20;;
71566;SDS011;59403;47.456;19.120;2023-04-29T06:53:42;11.82;;;6.35;;
71566;SDS011;59403;47.456;19.120;2023-04-29T06:56:10;9.25;;;5.25;;
71566;SDS011;59403;47.456;19.120;2023-04-29T06:58:37;10.05;;;6.25;;
71566;SDS011;59403;47.456;19.120;2023-04-29T07:01:04;11.55;;;5.87;;
71566;SDS011;59403;47.456;19.120;2023-04-29T07:03:32;9.60;;;6.55;;
71566;SDS011;59403;47.456;19.120;2023-04-29T07:05:59;9.25;;;6.18;;
71566;SDS011;59403;47.456;19.120;2023-04-29T07:08:28;8.63;;;6.15;;
71566;SDS011;59403;47.456;19.120;2023-04-29T07:10:56;10.18;;;6.30;;
71566;SDS011;59403;47.456;19.120;2023-04-29T07:13:23;10.25;;;5.97;;
71566;SDS011;59403;47.456;19.120;2023-04-29T07:15:50;9.10;;;6.25;;
71566;SDS011;59403;47.456;19.120;2023-04-29T07:18:17;9.55;;;7.15;;
71566;SDS011;59403;47.456;19.120;2023-04-29T07:20:45;8.57;;;6.72;;
71566;SDS011;59403;47.456;19.120;2023-04-29T07:23:16;12.37;;;6.53;;
71566;SDS011;59403;47.456;19.120;2023-04-29T07:25:45;9.57;;;6.57;;
71566;SDS011;59403;47.456;19.120;2023-04-29T07:28:11;12.27;;;6.47;;
71566;SDS011;59403;47.456;19.120;2023-04-29T07:30:38;12.20;;;6.62;;
71566;SDS011;59403;47.456;19.120;2023-04-29T07:33:06;9.88;;;5.97;;
71566;SDS011;59403;47.456;19.120;2023-04-29T07:35:33;9.00;;;6.10;;
71566;SDS011;59403;47.456;19.120;2023-04-29T07:38:00;11.48;;;6.43;;
71566;SDS011;59403;47.456;19.120;2023-04-29T07:40:27;10.55;;;6.18;;
71566;SDS011;59403;47.456;19.120;2023-04-29T07:42:56;9.90;;;6.35;;
71566;SDS011;59403;47.456;19.120;2023-04-29T07:45:23;9.13;;;5.75;;
71566;SDS011;59403;47.456;19.120;2023-04-29T07:47:50;11.82;;;6.70;;
71566;SDS011;59403;47.456;19.120;2023-04-29T07:50:17;8.45;;;6.53;;
71566;SDS011;59403;47.456;19.120;2023-04-29T07:52:44;13.60;;;6.32;;
71566;SDS011;59403;47.456;19.120;2023-04-29T07:55:11;20.17;;;7.40;;
71566;SDS011;59403;47.456;19.120;2023-04-29T07:57:38;11.12;;;6.62;;
71566;SDS011;59403;47.456;19.120;2023-04-29T08:00:07;9.55;;;6.30;;
71566;SDS011;59403;47.456;19.120;2023-04-29T08:02:35;11.85;;;7.18;;
71566;SDS011;59403;47.456;19.120;2023-04-29T08:05:02;10.85;;;6.87;;
71566;SDS011;59403;47.456;19.120;2023-04-29T08:07:29;11.80;;;7.25;;
71566;SDS011;59403;47.456;19.120;2023-04-29T08:09:56;10.80;;;6.90;;
71566;SDS011;59403;47.456;19.120;2023-04-29T08:12:23;10.13;;;6.90;;
71566;SDS011;59403;47.456;19.120;2023-04-29T08:14:49;15.52;;;7.60;;
71566;SDS011;59403;47.456;19.120;2023-04-29T08:17:18;13.27;;;6.95;;
71566;SDS011;59403;47.456;19.120;2023-04-29T08:19:44;10.85;;;6.57;;
71566;SDS011;59403;47.456;19.120;2023-04-29T08:22:11;9.65;;;6.32;;
71566;SDS011;59403;47.456;19.120;2023-04-29T08:24:38;11.98;;;6.43;;
71566;SDS011;59403;47.456;19.120;2023-04-29T08:27:07;11.38;;;6.80;;
71566;SDS011;59403;47.456;19.120;2023-04-29T08:29:33;9.93;;;6.68;;
71566;SDS011;59403;47.456;19.120;2023-04-29T08:32:01;8.57;;;6.32;;
71566;SDS011;59403;47.456;19.120;2023-04-29T08:34:29;7.35;;;6.20;;
71566;SDS011;59403;47.456;19.120;2023-04-29T08:36:57;17.15;;;7.07;;
71566;SDS011;59403;47.456;19.120;2023-04-29T08:39:24;12.07;;;6.55;;
71566;SDS011;59403;47.456;19.120;2023-04-29T08:41:51;10.02;;;6.40;;
71566;SDS011;59403;47.456;19.120;2023-04-29T08:44:19;11.85;;;7.20;;
71566;SDS011;59403;47.456;19.120;2023-04-29T08:46:46;9.52;;;5.97;;
71566;SDS011;59403;47.456;19.120;2023-04-29T08:49:14;11.10;;;6.62;;
71566;SDS011;59403;47.456;19.120;2023-04-29T08:51:42;13.60;;;7.20;;
71566;SDS011;59403;47.456;19.120;2023-04-29T08:54:09;16.70;;;6.40;;
71566;SDS011;59403;47.456;19.120;2023-04-29T08:56:36;7.90;;;5.87;;
71566;SDS011;59403;47.456;19.120;2023-04-29T08:59:04;10.82;;;6.20;;
71566;SDS011;59403;47.456;19.120;2023-04-29T09:01:34;7.18;;;5.57;;
71566;SDS011;59403;47.456;19.120;2023-04-29T09:04:07;8.45;;;5.80;;
71566;SDS011;59403;47.456;19.120;2023-04-29T09:06:38;9.73;;;6.03;;
71566;SDS011;59403;47.456;19.120;2023-04-29T09:09:06;9.95;;;6.25;;
71566;SDS011;59403;47.456;19.120;2023-04-29T09:11:33;7.40;;;6.30;;
71566;SDS011;59403;47.456;19.120;2023-04-29T09:14:02;10.32;;;7.22;;
71566;SDS011;59403;47.456;19.120;2023-04-29T09:16:29;8.68;;;5.65;;
71566;SDS011;59403;47.456;19.120;2023-04-29T09:18:56;7.50;;;5.68;;
71566;SDS011;59403;47.456;19.120;2023-04-29T09:21:24;9.10;;;5.75;;
71566;SDS011;59403;47.456;19.120;2023-04-29T09:23:53;8.20;;;5.82;;
71566;SDS011;59403;47.456;19.120;2023-04-29T09:26:22;7.65;;;5.68;;
71566;SDS011;59403;47.456;19.120;2023-04-29T09:29:04;7.47;;;5.60;;
71566;SDS011;59403;47.456;19.120;2023-04-29T09:31:33;7.32;;;6.00;;
71566;SDS011;59403;47.456;19.120;2023-04-29T09:34:00;8.60;;;4.93;;
71566;SDS011;59403;47.456;19.120;2023-04-29T09:36:40;8.18;;;5.53;;
71566;SDS011;59403;47.456;19.120;2023-04-29T09:39:09;9.77;;;5.62;;
71566;SDS011;59403;47.456;19.120;2023-04-29T09:41:39;14.10;;;5.97;;
71566;SDS011;59403;47.456;19.120;2023-04-29T09:44:08;6.55;;;5.00;;
71566;SDS011;59403;47.456;19.120;2023-04-29T09:46:36;9.40;;;6.50;;
71566;SDS011;59403;47.456;19.120;2023-04-29T09:49:03;13.35;;;5.78;;
71566;SDS011;59403;47.456;19.120;2023-04-29T09:51:50;7.18;;;5.78;;
71566;SDS011;59403;47.456;19.120;2023-04-29T09:54:19;8.50;;;5.68;;
71566;SDS011;59403;47.456;19.120;2023-04-29T09:56:48;10.73;;;5.40;;
71566;SDS011;59403;47.456;19.120;2023-04-29T09:59:16;6.87;;;4.95;;
71566;SDS011;59403;47.456;19.120;2023-04-29T10:01:43;11.15;;;4.93;;
71566;SDS011;59403;47.456;19.120;2023-04-29T10:04:13;8.23;;;5.22;;
71566;SDS011;59403;47.456;19.120;2023-04-29T10:06:41;8.38;;;5.07;;
71566;SDS011;59403;47.456;19.120;2023-04-29T10:09:10;6.60;;;4.65;;
71566;SDS011;59403;47.456;19.120;2023-04-29T10:11:42;7.15;;;3.92;;
71566;SDS011;59403;47.456;19.120;2023-04-29T10:14:21;6.90;;;4.57;;
71566;SDS011;59403;47.456;19.120;2023-04-29T10:16:51;8.65;;;4.32;;
71566;SDS011;59403;47.456;19.120;2023-04-29T10:19:25;8.02;;;4.35;;
71566;SDS011;59403;47.456;19.120;2023-04-29T10:21:57;7.32;;;4.80;;
71566;SDS011;59403;47.456;19.120;2023-04-29T10:24:30;6.07;;;4.55;;
71566;SDS011;59403;47.456;19.120;2023-04-29T10:27:01;7.85;;;4.37;;
71566;SDS011;59403;47.456;19.120;2023-04-29T10:29:34;10.07;;;4.80;;
71566;SDS011;59403;47.456;19.120;2023-04-29T10:32:03;6.68;;;4.75;;
71566;SDS011;59403;47.456;19.120;2023-04-29T10:34:35;7.90;;;4.72;;
71566;SDS011;59403;47.456;19.120;2023-04-29T10:37:03;9.03;;;4.70;;
71566;SDS011;59403;47.456;19.120;2023-04-29T10:39:33;6.62;;;4.70;;
71566;SDS011;59403;47.456;19.120;2023-04-29T10:42:06;8.02;;;4.37;;
71566;SDS011;59403;47.456;19.120;2023-04-29T10:50:59;6.80;;;4.67;;
71566;SDS011;59403;47.456;19.120;2023-04-29T10:53:27;7.47;;;4.20;;
71566;SDS011;59403;47.456;19.120;2023-04-29T10:55:58;7.95;;;3.75;;
71566;SDS011;59403;47.456;19.120;2023-04-29T10:58:34;7.12;;;4.93;;
71566;SDS011;59403;47.456;19.120;2023-04-29T11:01:08;7.93;;;4.85;;
71566;SDS011;59403;47.456;19.120;2023-04-29T11:03:49;7.27;;;5.20;;
71566;SDS011;59403;47.456;19.120;2023-04-29T11:06:22;5.62;;;4.18;;
71566;SDS011;59403;47.456;19.120;2023-04-29T11:08:59;7.45;;;4.80;;
71566;SDS011;59403;47.456;19.120;2023-04-29T11:11:39;7.22;;;4.70;;
71566;SDS011;59403;47.456;19.120;2023-04-29T11:14:07;9.57;;;4.57;;
71566;SDS011;59403;47.456;19.120;2023-04-29T11:16:36;7.90;;;5.10;;
71566;SDS011;59403;47.456;19.120;2023-04-29T11:19:04;7.68;;;4.65;;
71566;SDS011;59403;47.456;19.120;2023-04-29T11:21:33;6.10;;;4.30;;
71566;SDS011;59403;47.456;19.120;2023-04-29T11:24:00;6.80;;;4.32;;
71566;SDS011;59403;47.456;19.120;2023-04-29T11:26:28;6.45;;;5.35;;
71566;SDS011;59403;47.456;19.120;2023-04-29T11:28:55;7.40;;;5.40;;
71566;SDS011;59403;47.456;19.120;2023-04-29T11:31:26;9.30;;;4.70;;
71566;SDS011;59403;47.456;19.120;2023-04-29T11:33:57;5.87;;;4.60;;
71566;SDS011;59403;47.456;19.120;2023-04-29T11:36:24;7.95;;;4.65;;
71566;SDS011;59403;47.456;19.120;2023-04-29T11:38:51;6.57;;;4.10;;
71566;SDS011;59403;47.456;19.120;2023-04-29T11:41:19;7.33;;;4.90;;
71566;SDS011;59403;47.456;19.120;2023-04-29T11:43:47;7.75;;;5.40;;
71566;SDS011;59403;47.456;19.120;2023-04-29T11:46:20;8.43;;;5.20;;
71566;SDS011;59403;47.456;19.120;2023-04-29T11:48:47;6.25;;;4.47;;
71566;SDS011;59403;47.456;19.120;2023-04-29T11:51:16;6.30;;;4.90;;
71566;SDS011;59403;47.456;19.120;2023-04-29T11:53:45;7.40;;;4.67;;
71566;SDS011;59403;47.456;19.120;2023-04-29T11:56:11;7.87;;;4.97;;
71566;SDS011;59403;47.456;19.120;2023-04-29T11:58:38;6.95;;;5.03;;
71566;SDS011;59403;47.456;19.120;2023-04-29T12:01:08;6.47;;;4.82;;
71566;SDS011;59403;47.456;19.120;2023-04-29T12:03:35;5.95;;;4.70;;
71566;SDS011;59403;47.456;19.120;2023-04-29T12:06:02;6.03;;;5.27;;
71566;SDS011;59403;47.456;19.120;2023-04-29T12:08:30;9.52;;;4.80;;
71566;SDS011;59403;47.456;19.120;2023-04-29T12:10:59;7.80;;;4.75;;
71566;SDS011;59403;47.456;19.120;2023-04-29T12:13:27;7.50;;;4.57;;
71566;SDS011;59403;47.456;19.120;2023-04-29T12:15:55;8.05;;;4.90;;
71566;SDS011;59403;47.456;19.120;2023-04-29T12:18:23;8.27;;;4.53;;
71566;SDS011;59403;47.456;19.120;2023-04-29T12:20:51;7.22;;;4.93;;
71566;SDS011;59403;47.456;19.120;2023-04-29T12:23:20;6.45;;;4.70;;
71566;SDS011;59403;47.456;19.120;2023-04-29T12:25:50;6.05;;;4.50;;
71566;SDS011;59403;47.456;19.120;2023-04-29T12:28:18;8.30;;;4.65;;
71566;SDS011;59403;47.456;19.120;2023-04-29T12:30:46;9.97;;;5.23;;
71566;SDS011;59403;47.456;19.120;2023-04-29T12:33:20;7.40;;;4.85;;
71566;SDS011;59403;47.456;19.120;2023-04-29T12:35:47;7.15;;;4.55;;
71566;SDS011;59403;47.456;19.120;2023-04-29T12:38:18;8.50;;;4.90;;
71566;SDS011;59403;47.456;19.120;2023-04-29T12:40:46;7.03;;;5.07;;
71566;SDS011;59403;47.456;19.120;2023-04-29T12:43:14;7.63;;;4.83;;
71566;SDS011;59403;47.456;19.120;2023-04-29T12:45:41;8.95;;;5.25;;
71566;SDS011;59403;47.456;19.120;2023-04-29T12:48:08;6.62;;;4.55;;
71566;SDS011;59403;47.456;19.120;2023-04-29T12:50:37;8.10;;;4.28;;
71566;SDS011;59403;47.456;19.120;2023-04-29T12:53:05;6.85;;;4.70;;
71566;SDS011;59403;47.456;19.120;2023-04-29T12:55:34;8.20;;;5.20;;
71566;SDS011;59403;47.456;19.120;2023-04-29T12:58:02;5.57;;;4.43;;
71566;SDS011;59403;47.456;19.120;2023-04-29T13:00:32;6.22;;;4.90;;
71566;SDS011;59403;47.456;19.120;2023-04-29T13:03:01;6.85;;;5.10;;
71566;SDS011;59403;47.456;19.120;2023-04-29T13:05:28;5.53;;;4.87;;
71566;SDS011;59403;47.456;19.120;2023-04-29T13:07:55;8.50;;;5.03;;
71566;SDS011;59403;47.456;19.120;2023-04-29T13:10:22;7.20;;;4.37;;
71566;SDS011;59403;47.456;19.120;2023-04-29T13:12:49;7.18;;;4.93;;
71566;SDS011;59403;47.456;19.120;2023-04-29T13:15:16;7.93;;;5.20;;
71566;SDS011;59403;47.456;19.120;2023-04-29T13:17:45;9.65;;;5.55;;
71566;SDS011;59403;47.456;19.120;2023-04-29T13:20:12;9.37;;;5.50;;
71566;SDS011;59403;47.456;19.120;2023-04-29T13:22:39;11.52;;;5.18;;
71566;SDS011;59403;47.456;19.120;2023-04-29T13:25:07;7.35;;;5.53;;
71566;SDS011;59403;47.456;19.120;2023-04-29T13:27:36;7.68;;;5.70;;
71566;SDS011;59403;47.456;19.120;2023-04-29T13:30:03;7.05;;;4.50;;
71566;SDS011;59403;47.456;19.120;2023-04-29T13:32:30;6.73;;;5.70;;
71566;SDS011;59403;47.456;19.120;2023-04-29T13:35:01;6.87;;;4.80;;
71566;SDS011;59403;47.456;19.120;2023-04-29T13:37:28;7.60;;;5.00;;
71566;SDS011;59403;47.456;19.120;2023-04-29T13:39:55;5.70;;;5.10;;
71566;SDS011;59403;47.456;19.120;2023-04-29T13:42:22;9.30;;;5.28;;
71566;SDS011;59403;47.456;19.120;2023-04-29T13:44:49;8.67;;;5.57;;
71566;SDS011;59403;47.456;19.120;2023-04-29T13:47:21;7.28;;;5.30;;
71566;SDS011;59403;47.456;19.120;2023-04-29T13:49:48;6.18;;;4.62;;
71566;SDS011;59403;47.456;19.120;2023-04-29T13:52:17;5.87;;;4.70;;
71566;SDS011;59403;47.456;19.120;2023-04-29T13:54:43;7.45;;;4.95;;
71566;SDS011;59403;47.456;19.120;2023-04-29T13:57:10;8.80;;;5.10;;
71566;SDS011;59403;47.456;19.120;2023-04-29T13:59:37;8.07;;;5.47;;
71566;SDS011;59403;47.456;19.120;2023-04-29T14:02:04;7.57;;;5.05;;
71566;SDS011;59403;47.456;19.120;2023-04-29T14:04:31;6.90;;;4.78;;
71566;SDS011;59403;47.456;19.120;2023-04-29T14:06:58;6.93;;;4.50;;
71566;SDS011;59403;47.456;19.120;2023-04-29T14:09:27;6.97;;;5.37;;
71566;SDS011;59403;47.456;19.120;2023-04-29T14:11:54;7.87;;;5.53;;
71566;SDS011;59403;47.456;19.120;2023-04-29T14:14:21;6.87;;;5.22;;
71566;SDS011;59403;47.456;19.120;2023-04-29T14:16:48;7.62;;;5.07;;
71566;SDS011;59403;47.456;19.120;2023-04-29T14:19:15;6.85;;;4.60;;
71566;SDS011;59403;47.456;19.120;2023-04-29T14:21:42;6.97;;;5.27;;
71566;SDS011;59403;47.456;19.120;2023-04-29T14:24:09;9.30;;;5.07;;
71566;SDS011;59403;47.456;19.120;2023-04-29T14:26:37;7.95;;;5.05;;
71566;SDS011;59403;47.456;19.120;2023-04-29T14:29:04;7.93;;;4.57;;
71566;SDS011;59403;47.456;19.120;2023-04-29T14:31:32;6.95;;;4.95;;
71566;SDS011;59403;47.456;19.120;2023-04-29T14:34:02;6.47;;;5.03;;
71566;SDS011;59403;47.456;19.120;2023-04-29T14:36:29;7.72;;;4.87;;
71566;SDS011;59403;47.456;19.120;2023-04-29T14:38:57;6.47;;;4.15;;
71566;SDS011;59403;47.456;19.120;2023-04-29T14:41:24;6.78;;;4.45;;
71566;SDS011;59403;47.456;19.120;2023-04-29T14:43:53;5.20;;;4.40;;